TNCC/CUR METAR and TAF weather

Enter ICAO airport designator
Station Type Date Time Source
TNCC METAR 2019/02/18 03:00 UTC NOAA

TNCC 180300Z AUTO 10015KT 9000 SCT015 26/22 Q1016


Station Type Date Time Source
TNCC Decoded METAR 2019/02/18 03:00 UTC NOAA

Hato Airport, Curacao, Netherlands Antilles (TNCC) 12-12N 068-58W 67M
Feb 17, 2019 - 10:00 PM EST / 2019.02.18 0300 UTC
Wind: from the E (100 degrees) at 17 MPH (15 KT):0
Visibility: 5 mile(s):0
Sky conditions: partly cloudy
Temperature: 78 F (26 C)
Dew Point: 71 F (22 C)
Relative Humidity: 78%
Pressure (altimeter): 30.00 in. Hg (1016 hPa)
ob: TNCC 180300Z AUTO 10015KT 9000 SCT015 26/22 Q1016
cycle: 3

Station Type Date Time Source
TNCC TAF 2019/02/18 06:10 UTC NOAA

TAF TNCC 180400Z 1806/1906 10017G28KT 9999 SCT018
TEMPO 1806/1816 BKN014


Example: see airport list